sensor_id;sensor_type;location;lat;lon;timestamp;P1;durP1;ratioP1;P2;durP2;ratioP2
52272;SDS011;38227;50.942;4.016;2023-04-03T00:02:28;9.63;;;5.55;;
52272;SDS011;38227;50.942;4.016;2023-04-03T00:04:58;10.50;;;5.60;;
52272;SDS011;38227;50.942;4.016;2023-04-03T00:07:37;9.98;;;5.93;;
52272;SDS011;38227;50.942;4.016;2023-04-03T00:10:08;5.95;;;4.68;;
52272;SDS011;38227;50.942;4.016;2023-04-03T00:12:39;9.75;;;5.43;;
52272;SDS011;38227;50.942;4.016;2023-04-03T00:15:14;7.70;;;4.62;;
52272;SDS011;38227;50.942;4.016;2023-04-03T00:17:49;8.98;;;5.20;;
52272;SDS011;38227;50.942;4.016;2023-04-03T00:20:28;7.78;;;4.87;;
52272;SDS011;38227;50.942;4.016;2023-04-03T00:23:14;8.82;;;5.05;;
52272;SDS011;38227;50.942;4.016;2023-04-03T00:25:52;9.63;;;5.32;;
52272;SDS011;38227;50.942;4.016;2023-04-03T00:28:20;7.22;;;4.43;;
52272;SDS011;38227;50.942;4.016;2023-04-03T00:30:52;7.53;;;4.70;;
52272;SDS011;38227;50.942;4.016;2023-04-03T00:33:38;6.95;;;4.47;;
52272;SDS011;38227;50.942;4.016;2023-04-03T00:36:16;6.00;;;4.40;;
52272;SDS011;38227;50.942;4.016;2023-04-03T00:38:56;7.55;;;4.57;;
52272;SDS011;38227;50.942;4.016;2023-04-03T00:41:28;7.32;;;4.65;;
52272;SDS011;38227;50.942;4.016;2023-04-03T00:44:18;7.25;;;4.35;;
52272;SDS011;38227;50.942;4.016;2023-04-03T00:46:56;10.10;;;5.78;;
52272;SDS011;38227;50.942;4.016;2023-04-03T00:49:30;6.95;;;4.40;;
52272;SDS011;38227;50.942;4.016;2023-04-03T00:52:15;7.57;;;5.00;;
52272;SDS011;38227;50.942;4.016;2023-04-03T00:54:53;9.50;;;5.43;;
52272;SDS011;38227;50.942;4.016;2023-04-03T00:57:32;8.63;;;5.32;;
52272;SDS011;38227;50.942;4.016;2023-04-03T01:00:15;8.02;;;5.03;;
52272;SDS011;38227;50.942;4.016;2023-04-03T01:02:52;9.20;;;5.03;;
52272;SDS011;38227;50.942;4.016;2023-04-03T01:05:38;8.10;;;5.22;;
52272;SDS011;38227;50.942;4.016;2023-04-03T01:08:14;8.50;;;5.10;;
52272;SDS011;38227;50.942;4.016;2023-04-03T01:10:55;7.97;;;4.85;;
52272;SDS011;38227;50.942;4.016;2023-04-03T01:13:32;8.30;;;5.15;;
52272;SDS011;38227;50.942;4.016;2023-04-03T01:16:04;7.40;;;4.78;;
52272;SDS011;38227;50.942;4.016;2023-04-03T01:18:39;9.07;;;5.07;;
52272;SDS011;38227;50.942;4.016;2023-04-03T01:24:43;7.20;;;4.28;;
52272;SDS011;38227;50.942;4.016;2023-04-03T01:27:14;6.35;;;3.90;;
52272;SDS011;38227;50.942;4.016;2023-04-03T01:29:54;6.80;;;3.95;;
52272;SDS011;38227;50.942;4.016;2023-04-03T01:32:32;7.05;;;4.35;;
52272;SDS011;38227;50.942;4.016;2023-04-03T01:35:21;9.60;;;5.15;;
52272;SDS011;38227;50.942;4.016;2023-04-03T01:37:59;8.45;;;4.75;;
52272;SDS011;38227;50.942;4.016;2023-04-03T01:40:38;8.77;;;4.30;;
52272;SDS011;38227;50.942;4.016;2023-04-03T01:43:19;5.65;;;3.15;;
52272;SDS011;38227;50.942;4.016;2023-04-03T01:45:54;4.43;;;3.23;;
52272;SDS011;38227;50.942;4.016;2023-04-03T01:48:40;5.90;;;3.90;;
52272;SDS011;38227;50.942;4.016;2023-04-03T01:51:11;5.20;;;3.70;;
52272;SDS011;38227;50.942;4.016;2023-04-03T01:53:43;5.72;;;3.62;;
52272;SDS011;38227;50.942;4.016;2023-04-03T01:56:14;7.05;;;3.92;;
52272;SDS011;38227;50.942;4.016;2023-04-03T01:58:44;6.05;;;3.62;;
52272;SDS011;38227;50.942;4.016;2023-04-03T02:01:21;6.85;;;3.65;;
52272;SDS011;38227;50.942;4.016;2023-04-03T02:03:52;5.22;;;3.22;;
52272;SDS011;38227;50.942;4.016;2023-04-03T02:06:24;6.50;;;3.55;;
52272;SDS011;38227;50.942;4.016;2023-04-03T02:08:54;3.90;;;3.05;;
52272;SDS011;38227;50.942;4.016;2023-04-03T02:11:27;6.68;;;3.53;;
52272;SDS011;38227;50.942;4.016;2023-04-03T02:14:01;4.65;;;2.83;;
52272;SDS011;38227;50.942;4.016;2023-04-03T02:16:42;4.35;;;2.75;;
52272;SDS011;38227;50.942;4.016;2023-04-03T02:19:12;3.62;;;2.67;;
52272;SDS011;38227;50.942;4.016;2023-04-03T02:21:49;3.87;;;3.05;;
52272;SDS011;38227;50.942;4.016;2023-04-03T02:24:18;4.03;;;2.90;;
52272;SDS011;38227;50.942;4.016;2023-04-03T02:26:59;3.72;;;2.75;;
52272;SDS011;38227;50.942;4.016;2023-04-03T02:29:29;3.90;;;2.62;;
52272;SDS011;38227;50.942;4.016;2023-04-03T02:32:02;4.28;;;2.72;;
52272;SDS011;38227;50.942;4.016;2023-04-03T02:34:39;4.70;;;2.83;;
52272;SDS011;38227;50.942;4.016;2023-04-03T02:37:09;5.30;;;3.22;;
52272;SDS011;38227;50.942;4.016;2023-04-03T02:39:40;4.50;;;3.00;;
52272;SDS011;38227;50.942;4.016;2023-04-03T02:42:09;4.28;;;2.83;;
52272;SDS011;38227;50.942;4.016;2023-04-03T02:44:40;4.95;;;2.65;;
52272;SDS011;38227;50.942;4.016;2023-04-03T02:47:11;4.80;;;2.90;;
52272;SDS011;38227;50.942;4.016;2023-04-03T02:49:40;4.45;;;3.20;;
52272;SDS011;38227;50.942;4.016;2023-04-03T02:52:11;4.95;;;2.78;;
52272;SDS011;38227;50.942;4.016;2023-04-03T02:54:42;4.07;;;2.80;;
52272;SDS011;38227;50.942;4.016;2023-04-03T02:57:18;4.57;;;2.87;;
52272;SDS011;38227;50.942;4.016;2023-04-03T02:59:55;3.50;;;2.65;;
52272;SDS011;38227;50.942;4.016;2023-04-03T03:02:25;4.47;;;2.62;;
52272;SDS011;38227;50.942;4.016;2023-04-03T03:05:02;3.28;;;2.55;;
52272;SDS011;38227;50.942;4.016;2023-04-03T03:07:30;3.12;;;2.60;;
52272;SDS011;38227;50.942;4.016;2023-04-03T03:10:03;3.50;;;2.58;;
52272;SDS011;38227;50.942;4.016;2023-04-03T03:12:37;4.32;;;2.58;;
52272;SDS011;38227;50.942;4.016;2023-04-03T03:15:13;3.83;;;2.72;;
52272;SDS011;38227;50.942;4.016;2023-04-03T03:17:42;5.37;;;3.05;;
52272;SDS011;38227;50.942;4.016;2023-04-03T03:20:12;4.12;;;2.75;;
52272;SDS011;38227;50.942;4.016;2023-04-03T03:22:42;3.08;;;2.58;;
52272;SDS011;38227;50.942;4.016;2023-04-03T03:25:20;4.80;;;2.87;;
52272;SDS011;38227;50.942;4.016;2023-04-03T03:27:58;3.58;;;2.90;;
52272;SDS011;38227;50.942;4.016;2023-04-03T03:30:29;3.80;;;2.90;;
52272;SDS011;38227;50.942;4.016;2023-04-03T03:33:02;3.85;;;2.80;;
52272;SDS011;38227;50.942;4.016;2023-04-03T03:35:32;5.15;;;2.97;;
52272;SDS011;38227;50.942;4.016;2023-04-03T03:38:10;4.87;;;2.55;;
52272;SDS011;38227;50.942;4.016;2023-04-03T03:40:39;3.95;;;2.72;;
52272;SDS011;38227;50.942;4.016;2023-04-03T03:43:10;3.50;;;2.65;;
52272;SDS011;38227;50.942;4.016;2023-04-03T03:45:41;4.05;;;2.53;;
52272;SDS011;38227;50.942;4.016;2023-04-03T03:48:12;3.58;;;2.75;;
52272;SDS011;38227;50.942;4.016;2023-04-03T03:50:43;5.43;;;2.87;;
52272;SDS011;38227;50.942;4.016;2023-04-03T03:53:13;3.60;;;2.45;;
52272;SDS011;38227;50.942;4.016;2023-04-03T03:55:44;4.72;;;2.70;;
52272;SDS011;38227;50.942;4.016;2023-04-03T03:58:12;4.22;;;2.95;;
52272;SDS011;38227;50.942;4.016;2023-04-03T04:00:42;2.97;;;2.50;;
52272;SDS011;38227;50.942;4.016;2023-04-03T04:03:13;4.35;;;2.58;;
52272;SDS011;38227;50.942;4.016;2023-04-03T04:05:44;4.80;;;2.80;;
52272;SDS011;38227;50.942;4.016;2023-04-03T04:08:21;3.47;;;2.50;;
52272;SDS011;38227;50.942;4.016;2023-04-03T04:10:55;4.28;;;2.53;;
52272;SDS011;38227;50.942;4.016;2023-04-03T04:13:34;3.95;;;3.10;;
52272;SDS011;38227;50.942;4.016;2023-04-03T04:16:04;3.92;;;2.65;;
52272;SDS011;38227;50.942;4.016;2023-04-03T04:18:34;3.75;;;2.83;;
52272;SDS011;38227;50.942;4.016;2023-04-03T04:21:04;3.58;;;2.47;;
52272;SDS011;38227;50.942;4.016;2023-04-03T04:23:42;3.55;;;2.67;;
52272;SDS011;38227;50.942;4.016;2023-04-03T04:26:11;4.75;;;2.95;;
52272;SDS011;38227;50.942;4.016;2023-04-03T04:28:43;4.43;;;2.78;;
52272;SDS011;38227;50.942;4.016;2023-04-03T04:31:13;3.90;;;2.95;;
52272;SDS011;38227;50.942;4.016;2023-04-03T04:33:50;4.47;;;3.08;;
52272;SDS011;38227;50.942;4.016;2023-04-03T04:36:20;3.55;;;2.53;;
52272;SDS011;38227;50.942;4.016;2023-04-03T04:38:51;4.90;;;3.28;;
52272;SDS011;38227;50.942;4.016;2023-04-03T04:41:22;4.55;;;2.80;;
52272;SDS011;38227;50.942;4.016;2023-04-03T04:43:53;6.07;;;3.70;;
52272;SDS011;38227;50.942;4.016;2023-04-03T04:46:23;5.35;;;3.50;;
52272;SDS011;38227;50.942;4.016;2023-04-03T04:48:59;5.20;;;3.45;;
52272;SDS011;38227;50.942;4.016;2023-04-03T04:51:30;4.65;;;3.00;;
52272;SDS011;38227;50.942;4.016;2023-04-03T04:54:01;4.93;;;3.47;;
52272;SDS011;38227;50.942;4.016;2023-04-03T04:56:31;4.90;;;2.85;;
52272;SDS011;38227;50.942;4.016;2023-04-03T04:59:02;4.25;;;2.70;;
52272;SDS011;38227;50.942;4.016;2023-04-03T05:01:32;5.15;;;3.30;;
52272;SDS011;38227;50.942;4.016;2023-04-03T05:04:02;4.47;;;3.00;;
52272;SDS011;38227;50.942;4.016;2023-04-03T05:06:34;3.85;;;2.90;;
52272;SDS011;38227;50.942;4.016;2023-04-03T05:09:02;4.25;;;2.90;;
52272;SDS011;38227;50.942;4.016;2023-04-03T05:11:32;5.47;;;3.12;;
52272;SDS011;38227;50.942;4.016;2023-04-03T05:14:13;6.00;;;3.42;;
52272;SDS011;38227;50.942;4.016;2023-04-03T05:16:50;5.28;;;3.58;;
52272;SDS011;38227;50.942;4.016;2023-04-03T05:19:23;4.68;;;3.25;;
52272;SDS011;38227;50.942;4.016;2023-04-03T05:22:02;5.22;;;3.40;;
52272;SDS011;38227;50.942;4.016;2023-04-03T05:24:39;7.28;;;3.92;;
52272;SDS011;38227;50.942;4.016;2023-04-03T05:27:17;6.72;;;3.75;;
52272;SDS011;38227;50.942;4.016;2023-04-03T05:29:56;4.82;;;3.35;;
52272;SDS011;38227;50.942;4.016;2023-04-03T05:32:27;5.03;;;3.20;;
52272;SDS011;38227;50.942;4.016;2023-04-03T05:35:04;4.80;;;3.40;;
52272;SDS011;38227;50.942;4.016;2023-04-03T05:37:34;5.55;;;3.15;;
52272;SDS011;38227;50.942;4.016;2023-04-03T05:40:03;4.45;;;3.50;;
52272;SDS011;38227;50.942;4.016;2023-04-03T05:42:36;4.87;;;3.40;;
52272;SDS011;38227;50.942;4.016;2023-04-03T05:45:07;8.95;;;3.87;;
52272;SDS011;38227;50.942;4.016;2023-04-03T05:47:38;6.60;;;4.12;;
52272;SDS011;38227;50.942;4.016;2023-04-03T05:50:15;5.18;;;3.75;;
52272;SDS011;38227;50.942;4.016;2023-04-03T05:52:46;8.70;;;6.40;;
52272;SDS011;38227;50.942;4.016;2023-04-03T05:55:18;5.05;;;3.50;;
52272;SDS011;38227;50.942;4.016;2023-04-03T05:57:48;6.68;;;3.70;;
52272;SDS011;38227;50.942;4.016;2023-04-03T06:00:20;5.00;;;3.33;;
52272;SDS011;38227;50.942;4.016;2023-04-03T06:02:49;5.97;;;3.58;;
52272;SDS011;38227;50.942;4.016;2023-04-03T06:05:28;6.30;;;4.10;;
52272;SDS011;38227;50.942;4.016;2023-04-03T06:08:07;6.05;;;4.15;;
52272;SDS011;38227;50.942;4.016;2023-04-03T06:10:38;5.15;;;3.70;;
52272;SDS011;38227;50.942;4.016;2023-04-03T06:13:10;6.50;;;3.72;;
52272;SDS011;38227;50.942;4.016;2023-04-03T06:15:51;6.00;;;4.10;;
52272;SDS011;38227;50.942;4.016;2023-04-03T06:18:25;6.65;;;4.15;;
52272;SDS011;38227;50.942;4.016;2023-04-03T06:20:57;5.65;;;3.70;;
52272;SDS011;38227;50.942;4.016;2023-04-03T06:23:37;6.70;;;3.97;;
52272;SDS011;38227;50.942;4.016;2023-04-03T06:26:17;5.65;;;4.05;;
52272;SDS011;38227;50.942;4.016;2023-04-03T06:28:47;5.28;;;3.80;;
52272;SDS011;38227;50.942;4.016;2023-04-03T06:31:18;7.65;;;3.90;;
52272;SDS011;38227;50.942;4.016;2023-04-03T06:33:48;5.65;;;3.80;;
52272;SDS011;38227;50.942;4.016;2023-04-03T06:36:19;5.72;;;3.90;;
52272;SDS011;38227;50.942;4.016;2023-04-03T06:38:49;5.57;;;4.18;;
52272;SDS011;38227;50.942;4.016;2023-04-03T06:41:19;5.93;;;3.83;;
52272;SDS011;38227;50.942;4.016;2023-04-03T06:43:50;5.05;;;3.78;;
52272;SDS011;38227;50.942;4.016;2023-04-03T06:46:23;6.45;;;3.53;;
52272;SDS011;38227;50.942;4.016;2023-04-03T06:48:54;4.35;;;3.20;;
52272;SDS011;38227;50.942;4.016;2023-04-03T06:51:27;5.22;;;3.10;;
52272;SDS011;38227;50.942;4.016;2023-04-03T06:54:02;5.05;;;3.00;;
52272;SDS011;38227;50.942;4.016;2023-04-03T06:56:31;2.90;;;2.33;;
52272;SDS011;38227;50.942;4.016;2023-04-03T06:59:01;3.50;;;2.45;;
52272;SDS011;38227;50.942;4.016;2023-04-03T07:01:29;3.47;;;2.50;;
52272;SDS011;38227;50.942;4.016;2023-04-03T07:04:00;2.15;;;1.90;;
52272;SDS011;38227;50.942;4.016;2023-04-03T07:06:31;3.75;;;2.12;;
52272;SDS011;38227;50.942;4.016;2023-04-03T07:09:02;2.20;;;1.90;;
52272;SDS011;38227;50.942;4.016;2023-04-03T07:11:40;2.58;;;1.90;;
52272;SDS011;38227;50.942;4.016;2023-04-03T07:14:11;2.72;;;2.15;;
52272;SDS011;38227;50.942;4.016;2023-04-03T07:16:48;2.60;;;1.92;;
52272;SDS011;38227;50.942;4.016;2023-04-03T07:19:18;3.10;;;2.15;;
52272;SDS011;38227;50.942;4.016;2023-04-03T07:21:55;4.25;;;1.90;;
52272;SDS011;38227;50.942;4.016;2023-04-03T07:24:25;3.15;;;2.22;;
52272;SDS011;38227;50.942;4.016;2023-04-03T07:27:03;2.40;;;1.92;;
52272;SDS011;38227;50.942;4.016;2023-04-03T07:29:35;2.80;;;1.95;;
52272;SDS011;38227;50.942;4.016;2023-04-03T07:32:26;2.85;;;2.10;;
52272;SDS011;38227;50.942;4.016;2023-04-03T07:34:57;2.67;;;1.90;;
52272;SDS011;38227;50.942;4.016;2023-04-03T07:37:27;3.05;;;2.08;;
52272;SDS011;38227;50.942;4.016;2023-04-03T07:39:57;2.37;;;2.00;;
52272;SDS011;38227;50.942;4.016;2023-04-03T07:42:30;2.55;;;2.25;;
52272;SDS011;38227;50.942;4.016;2023-04-03T07:45:01;2.45;;;1.90;;
52272;SDS011;38227;50.942;4.016;2023-04-03T07:47:36;2.58;;;1.80;;
52272;SDS011;38227;50.942;4.016;2023-04-03T07:50:13;1.98;;;1.67;;
52272;SDS011;38227;50.942;4.016;2023-04-03T07:52:42;3.28;;;1.60;;
52272;SDS011;38227;50.942;4.016;2023-04-03T07:55:12;2.90;;;1.98;;
52272;SDS011;38227;50.942;4.016;2023-04-03T07:57:48;2.03;;;1.52;;
52272;SDS011;38227;50.942;4.016;2023-04-03T08:00:17;2.67;;;1.90;;
52272;SDS011;38227;50.942;4.016;2023-04-03T08:02:48;2.10;;;1.48;;
52272;SDS011;38227;50.942;4.016;2023-04-03T08:05:19;1.45;;;1.33;;
52272;SDS011;38227;50.942;4.016;2023-04-03T08:07:48;1.70;;;1.60;;
52272;SDS011;38227;50.942;4.016;2023-04-03T08:10:19;2.00;;;1.55;;
52272;SDS011;38227;50.942;4.016;2023-04-03T08:12:48;3.00;;;1.70;;
52272;SDS011;38227;50.942;4.016;2023-04-03T08:15:20;2.10;;;1.70;;
52272;SDS011;38227;50.942;4.016;2023-04-03T08:17:51;2.05;;;1.70;;
52272;SDS011;38227;50.942;4.016;2023-04-03T08:20:22;1.95;;;1.50;;
52272;SDS011;38227;50.942;4.016;2023-04-03T08:22:59;1.98;;;1.50;;
52272;SDS011;38227;50.942;4.016;2023-04-03T08:25:29;2.47;;;1.62;;
52272;SDS011;38227;50.942;4.016;2023-04-03T08:28:01;1.75;;;1.60;;
52272;SDS011;38227;50.942;4.016;2023-04-03T08:30:30;1.77;;;1.12;;
52272;SDS011;38227;50.942;4.016;2023-04-03T08:33:07;1.20;;;1.02;;
52272;SDS011;38227;50.942;4.016;2023-04-03T08:35:40;2.50;;;1.25;;
52272;SDS011;38227;50.942;4.016;2023-04-03T08:38:09;1.20;;;1.10;;
52272;SDS011;38227;50.942;4.016;2023-04-03T08:40:39;1.65;;;1.33;;
52272;SDS011;38227;50.942;4.016;2023-04-03T08:46:26;1.37;;;1.10;;
52272;SDS011;38227;50.942;4.016;2023-04-03T08:49:26;2.17;;;1.42;;
52272;SDS011;38227;50.942;4.016;2023-04-03T08:52:11;1.77;;;1.30;;
52272;SDS011;38227;50.942;4.016;2023-04-03T08:54:49;1.67;;;1.30;;
52272;SDS011;38227;50.942;4.016;2023-04-03T08:57:30;1.40;;;1.25;;
52272;SDS011;38227;50.942;4.016;2023-04-03T09:00:04;1.67;;;1.40;;
52272;SDS011;38227;50.942;4.016;2023-04-03T09:05:38;1.95;;;1.20;;
52272;SDS011;38227;50.942;4.016;2023-04-03T09:08:24;2.08;;;1.27;;
52272;SDS011;38227;50.942;4.016;2023-04-03T09:14:07;2.60;;;1.42;;
52272;SDS011;38227;50.942;4.016;2023-04-03T09:17:03;1.77;;;1.20;;
52272;SDS011;38227;50.942;4.016;2023-04-03T09:19:56;2.97;;;1.58;;
52272;SDS011;38227;50.942;4.016;2023-04-03T09:22:36;1.20;;;1.10;;
52272;SDS011;38227;50.942;4.016;2023-04-03T09:25:11;1.87;;;1.65;;
52272;SDS011;38227;50.942;4.016;2023-04-03T09:27:53;2.30;;;1.00;;
52272;SDS011;38227;50.942;4.016;2023-04-03T09:30:25;1.70;;;0.90;;
52272;SDS011;38227;50.942;4.016;2023-04-03T09:32:55;1.45;;;0.90;;
52272;SDS011;38227;50.942;4.016;2023-04-03T09:35:27;1.33;;;1.10;;
52272;SDS011;38227;50.942;4.016;2023-04-03T09:38:00;0.85;;;0.82;;
52272;SDS011;38227;50.942;4.016;2023-04-03T09:41:16;1.92;;;0.98;;
52272;SDS011;38227;50.942;4.016;2023-04-03T09:43:53;1.48;;;1.17;;
52272;SDS011;38227;50.942;4.016;2023-04-03T09:46:32;1.75;;;0.85;;
52272;SDS011;38227;50.942;4.016;2023-04-03T09:49:04;1.00;;;0.80;;
52272;SDS011;38227;50.942;4.016;2023-04-03T09:51:34;2.35;;;0.80;;
52272;SDS011;38227;50.942;4.016;2023-04-03T09:54:24;2.12;;;0.95;;
52272;SDS011;38227;50.942;4.016;2023-04-03T09:57:00;1.55;;;1.00;;
52272;SDS011;38227;50.942;4.016;2023-04-03T09:59:41;1.27;;;0.93;;
52272;SDS011;38227;50.942;4.016;2023-04-03T10:02:39;1.27;;;0.90;;
52272;SDS011;38227;50.942;4.016;2023-04-03T10:08:08;1.92;;;1.12;;
52272;SDS011;38227;50.942;4.016;2023-04-03T10:11:09;17.10;;;1.80;;
52272;SDS011;38227;50.942;4.016;2023-04-03T10:13:51;2.03;;;0.80;;
52272;SDS011;38227;50.942;4.016;2023-04-03T10:16:29;1.10;;;0.82;;
52272;SDS011;38227;50.942;4.016;2023-04-03T10:19:18;1.35;;;0.93;;
52272;SDS011;38227;50.942;4.016;2023-04-03T10:48:40;0.93;;;0.60;;
52272;SDS011;38227;50.942;4.016;2023-04-03T10:51:46;0.82;;;0.80;;
52272;SDS011;38227;50.942;4.016;2023-04-03T10:54:25;2.50;;;1.20;;
52272;SDS011;38227;50.942;4.016;2023-04-03T10:57:01;1.90;;;1.10;;
52272;SDS011;38227;50.942;4.016;2023-04-03T11:02:31;2.08;;;0.73;;
52272;SDS011;38227;50.942;4.016;2023-04-03T11:05:37;1.25;;;0.95;;
52272;SDS011;38227;50.942;4.016;2023-04-03T11:08:28;0.80;;;0.80;;
52272;SDS011;38227;50.942;4.016;2023-04-03T11:11:31;1.10;;;0.82;;
52272;SDS011;38227;50.942;4.016;2023-04-03T11:14:26;1.48;;;0.77;;
52272;SDS011;38227;50.942;4.016;2023-04-03T11:20:21;1.65;;;0.60;;
52272;SDS011;38227;50.942;4.016;2023-04-03T11:23:01;1.75;;;0.80;;
52272;SDS011;38227;50.942;4.016;2023-04-03T11:25:57;0.80;;;0.60;;
52272;SDS011;38227;50.942;4.016;2023-04-03T11:28:46;1.75;;;0.60;;
52272;SDS011;38227;50.942;4.016;2023-04-03T11:34:40;0.95;;;0.70;;
52272;SDS011;38227;50.942;4.016;2023-04-03T11:37:25;1.20;;;0.65;;
52272;SDS011;38227;50.942;4.016;2023-04-03T11:40:18;0.57;;;0.50;;
52272;SDS011;38227;50.942;4.016;2023-04-03T11:43:31;1.02;;;0.60;;
52272;SDS011;38227;50.942;4.016;2023-04-03T11:46:07;1.48;;;0.65;;
52272;SDS011;38227;50.942;4.016;2023-04-03T11:48:42;0.82;;;0.70;;
52272;SDS011;38227;50.942;4.016;2023-04-03T11:54:43;1.30;;;0.70;;
52272;SDS011;38227;50.942;4.016;2023-04-03T12:06:42;0.60;;;0.40;;
52272;SDS011;38227;50.942;4.016;2023-04-03T12:12:41;0.60;;;0.60;;
52272;SDS011;38227;50.942;4.016;2023-04-03T12:15:24;2.00;;;0.68;;
52272;SDS011;38227;50.942;4.016;2023-04-03T12:24:40;1.20;;;0.60;;
52272;SDS011;38227;50.942;4.016;2023-04-03T12:30:16;1.65;;;0.70;;
52272;SDS011;38227;50.942;4.016;2023-04-03T12:36:11;0.82;;;0.55;;
52272;SDS011;38227;50.942;4.016;2023-04-03T12:41:58;1.58;;;0.60;;
52272;SDS011;38227;50.942;4.016;2023-04-03T12:45:02;1.45;;;0.60;;
52272;SDS011;38227;50.942;4.016;2023-04-03T12:47:44;2.03;;;0.90;;
52272;SDS011;38227;50.942;4.016;2023-04-03T12:50:27;1.33;;;0.68;;
52272;SDS011;38227;50.942;4.016;2023-04-03T12:53:01;1.20;;;0.90;;
52272;SDS011;38227;50.942;4.016;2023-04-03T12:55:55;0.77;;;0.60;;
52272;SDS011;38227;50.942;4.016;2023-04-03T12:58:43;0.70;;;0.50;;
52272;SDS011;38227;50.942;4.016;2023-04-03T13:01:14;0.80;;;0.60;;
52272;SDS011;38227;50.942;4.016;2023-04-03T13:03:50;0.73;;;0.62;;
52272;SDS011;38227;50.942;4.016;2023-04-03T13:06:44;0.80;;;0.60;;
52272;SDS011;38227;50.942;4.016;2023-04-03T13:09:28;0.82;;;0.55;;
52272;SDS011;38227;50.942;4.016;2023-04-03T13:12:15;0.62;;;0.32;;
52272;SDS011;38227;50.942;4.016;2023-04-03T13:14:57;0.85;;;0.50;;
52272;SDS011;38227;50.942;4.016;2023-04-03T13:17:29;0.50;;;0.50;;
52272;SDS011;38227;50.942;4.016;2023-04-03T13:20:23;1.35;;;0.40;;
52272;SDS011;38227;50.942;4.016;2023-04-03T13:23:08;0.95;;;0.57;;
52272;SDS011;38227;50.942;4.016;2023-04-03T13:25:44;1.08;;;0.62;;
52272;SDS011;38227;50.942;4.016;2023-04-03T13:28:21;1.62;;;0.75;;
52272;SDS011;38227;50.942;4.016;2023-04-03T13:30:56;0.60;;;0.50;;
52272;SDS011;38227;50.942;4.016;2023-04-03T13:33:57;0.82;;;0.75;;
52272;SDS011;38227;50.942;4.016;2023-04-03T13:40:03;2.20;;;0.70;;
52272;SDS011;38227;50.942;4.016;2023-04-03T13:43:04;1.58;;;0.70;;
52272;SDS011;38227;50.942;4.016;2023-04-03T13:48:46;0.77;;;0.70;;
52272;SDS011;38227;50.942;4.016;2023-04-03T13:51:27;0.77;;;0.60;;
52272;SDS011;38227;50.942;4.016;2023-04-03T13:54:20;0.68;;;0.52;;
52272;SDS011;38227;50.942;4.016;2023-04-03T13:57:14;1.40;;;0.70;;
52272;SDS011;38227;50.942;4.016;2023-04-03T14:00:18;0.90;;;0.40;;
52272;SDS011;38227;50.942;4.016;2023-04-03T14:06:26;0.57;;;0.57;;
52272;SDS011;38227;50.942;4.016;2023-04-03T14:08:58;0.95;;;0.60;;
52272;SDS011;38227;50.942;4.016;2023-04-03T14:11:30;1.02;;;0.65;;
52272;SDS011;38227;50.942;4.016;2023-04-03T14:14:05;1.12;;;0.60;;
52272;SDS011;38227;50.942;4.016;2023-04-03T14:17:00;0.98;;;0.60;;
52272;SDS011;38227;50.942;4.016;2023-04-03T14:19:33;0.75;;;0.62;;
52272;SDS011;38227;50.942;4.016;2023-04-03T14:22:27;0.80;;;0.70;;
52272;SDS011;38227;50.942;4.016;2023-04-03T14:24:55;0.40;;;0.37;;
52272;SDS011;38227;50.942;4.016;2023-04-03T14:27:41;0.70;;;0.60;;
52272;SDS011;38227;50.942;4.016;2023-04-03T14:30:34;1.23;;;0.60;;
52272;SDS011;38227;50.942;4.016;2023-04-03T14:33:04;0.65;;;0.57;;
52272;SDS011;38227;50.942;4.016;2023-04-03T14:35:34;1.75;;;0.47;;
52272;SDS011;38227;50.942;4.016;2023-04-03T14:38:21;0.90;;;0.60;;
52272;SDS011;38227;50.942;4.016;2023-04-03T14:40:57;1.70;;;0.93;;
52272;SDS011;38227;50.942;4.016;2023-04-03T14:43:30;0.85;;;0.68;;
52272;SDS011;38227;50.942;4.016;2023-04-03T14:46:02;1.05;;;0.77;;
52272;SDS011;38227;50.942;4.016;2023-04-03T14:48:41;1.98;;;0.80;;
52272;SDS011;38227;50.942;4.016;2023-04-03T14:51:15;0.80;;;0.47;;
52272;SDS011;38227;50.942;4.016;2023-04-03T14:53:46;1.40;;;0.70;;
52272;SDS011;38227;50.942;4.016;2023-04-03T14:56:37;0.77;;;0.60;;
52272;SDS011;38227;50.942;4.016;2023-04-03T14:59:11;1.30;;;0.70;;
52272;SDS011;38227;50.942;4.016;2023-04-03T15:01:45;1.15;;;0.68;;
52272;SDS011;38227;50.942;4.016;2023-04-03T15:04:23;1.37;;;0.77;;
52272;SDS011;38227;50.942;4.016;2023-04-03T15:06:57;1.75;;;0.93;;
52272;SDS011;38227;50.942;4.016;2023-04-03T15:09:30;0.62;;;0.60;;
52272;SDS011;38227;50.942;4.016;2023-04-03T15:12:16;1.27;;;0.77;;
52272;SDS011;38227;50.942;4.016;2023-04-03T15:14:49;1.00;;;0.62;;
52272;SDS011;38227;50.942;4.016;2023-04-03T15:17:29;2.80;;;0.80;;
52272;SDS011;38227;50.942;4.016;2023-04-03T15:20:00;1.25;;;0.70;;
52272;SDS011;38227;50.942;4.016;2023-04-03T15:22:33;1.27;;;0.70;;
52272;SDS011;38227;50.942;4.016;2023-04-03T15:25:13;1.23;;;0.52;;
52272;SDS011;38227;50.942;4.016;2023-04-03T15:27:54;0.85;;;0.57;;
52272;SDS011;38227;50.942;4.016;2023-04-03T15:30:26;1.40;;;0.80;;
52272;SDS011;38227;50.942;4.016;2023-04-03T15:32:59;1.30;;;0.68;;
52272;SDS011;38227;50.942;4.016;2023-04-03T15:35:46;1.50;;;0.40;;
52272;SDS011;38227;50.942;4.016;2023-04-03T15:38:31;1.12;;;0.70;;
52272;SDS011;38227;50.942;4.016;2023-04-03T15:41:03;1.45;;;0.80;;
52272;SDS011;38227;50.942;4.016;2023-04-03T15:43:43;0.57;;;0.52;;
52272;SDS011;38227;50.942;4.016;2023-04-03T15:46:20;1.58;;;0.70;;
52272;SDS011;38227;50.942;4.016;2023-04-03T15:49:00;2.05;;;1.10;;
52272;SDS011;38227;50.942;4.016;2023-04-03T15:51:33;1.08;;;0.60;;
52272;SDS011;38227;50.942;4.016;2023-04-03T15:54:12;1.75;;;1.10;;
52272;SDS011;38227;50.942;4.016;2023-04-03T15:56:52;0.77;;;0.70;;
52272;SDS011;38227;50.942;4.016;2023-04-03T15:59:32;1.20;;;0.50;;
52272;SDS011;38227;50.942;4.016;2023-04-03T16:02:05;1.62;;;0.70;;
52272;SDS011;38227;50.942;4.016;2023-04-03T16:04:43;0.88;;;0.50;;
52272;SDS011;38227;50.942;4.016;2023-04-03T16:07:15;1.55;;;0.82;;
52272;SDS011;38227;50.942;4.016;2023-04-03T16:09:52;1.05;;;0.70;;
52272;SDS011;38227;50.942;4.016;2023-04-03T16:12:31;1.70;;;0.80;;
52272;SDS011;38227;50.942;4.016;2023-04-03T16:15:11;1.95;;;0.80;;
52272;SDS011;38227;50.942;4.016;2023-04-03T16:17:50;0.95;;;0.75;;
52272;SDS011;38227;50.942;4.016;2023-04-03T16:20:23;0.65;;;0.50;;
52272;SDS011;38227;50.942;4.016;2023-04-03T16:22:55;0.60;;;0.60;;
52272;SDS011;38227;50.942;4.016;2023-04-03T16:25:27;2.17;;;0.95;;
52272;SDS011;38227;50.942;4.016;2023-04-03T16:27:59;1.90;;;0.73;;
52272;SDS011;38227;50.942;4.016;2023-04-03T16:30:29;0.82;;;0.50;;
52272;SDS011;38227;50.942;4.016;2023-04-03T16:33:07;1.80;;;0.60;;
52272;SDS011;38227;50.942;4.016;2023-04-03T16:35:38;1.30;;;0.82;;
52272;SDS011;38227;50.942;4.016;2023-04-03T16:38:11;1.40;;;0.70;;
52272;SDS011;38227;50.942;4.016;2023-04-03T16:40:41;0.70;;;0.65;;
52272;SDS011;38227;50.942;4.016;2023-04-03T16:43:21;0.50;;;0.50;;
52272;SDS011;38227;50.942;4.016;2023-04-03T16:45:51;0.93;;;0.65;;
52272;SDS011;38227;50.942;4.016;2023-04-03T16:48:27;1.12;;;0.52;;
52272;SDS011;38227;50.942;4.016;2023-04-03T16:50:57;0.88;;;0.65;;
52272;SDS011;38227;50.942;4.016;2023-04-03T16:53:28;0.60;;;0.50;;
52272;SDS011;38227;50.942;4.016;2023-04-03T16:56:00;0.93;;;0.60;;
52272;SDS011;38227;50.942;4.016;2023-04-03T16:58:29;0.60;;;0.50;;
52272;SDS011;38227;50.942;4.016;2023-04-03T17:01:10;1.58;;;0.70;;
52272;SDS011;38227;50.942;4.016;2023-04-03T17:03:40;1.75;;;0.90;;
52272;SDS011;38227;50.942;4.016;2023-04-03T17:06:09;1.60;;;1.00;;
52272;SDS011;38227;50.942;4.016;2023-04-03T17:08:44;0.73;;;0.60;;
52272;SDS011;38227;50.942;4.016;2023-04-03T17:11:15;2.87;;;1.50;;
52272;SDS011;38227;50.942;4.016;2023-04-03T17:13:49;2.92;;;0.90;;
52272;SDS011;38227;50.942;4.016;2023-04-03T17:16:21;2.22;;;0.65;;
52272;SDS011;38227;50.942;4.016;2023-04-03T17:18:52;1.45;;;0.60;;